Aérodrome :
LOGIN :

S'inscrire | Disclaimer

   EN    FR    IT 

 










Légende :    VFR   VFR Marginal   IFR   IFR Intensif   IFR Très Intensif
Visi : 
Plafond : 
>= 8 km
>= 3000ft
5 à 8 km
1000 à 3000 ft
1500m à 5 km
500 à 1000 ft
800 à 1500m
200 à 500 ft
< 800m
< 200 ft
Symboles :   Orages  Brouillard  Fortes neiges  Fortes précipitations  Vent > 20 kt
SIGMETs :   Divers  Orages  Givrage  Turbulence  Onde Orograph.  Cendres Volcan.







- Altitude de l'aérodrome : 200 ft


EBBL - Klein Brogel AB

DERNIER METAR :
  • 240803Z 22010KT 9999 BKN013 BKN040 10/07 Q1017 GRN WHT TEMPO GRN

METARs EXPIRÉS :
  • 240755Z 22010KT 9999 BKN015 BKN040 10/07 Q1017 WHT WHT TEMPO GRN
  • 240725Z 24009KT 6000 RA SCT016 BKN040 10/07 Q1017 WHT WHT TEMPO GRN
  • 240705Z 23010KT 9999 RA SCT018 BKN040 10/06 Q1017 WHT WHT TEMPO GRN
  • 240655Z 22009KT 9999 FEW018 BKN040 10/06 Q1017 BLU BLU BECMG WHT
  • 240625Z 22010KT 9999 SCT030 SCT080 BKN200 10/06 Q1017 BLU BLU BECMG WHT
  • 240555Z 22011KT 9999 SCT030 SCT080 BKN200 09/06 Q1017 BLU BLU BECMG WHT
  • 240525Z 22009KT 9999 FEW040 SCT080 BKN200 09/05 Q1017 BLU BLU BECMG WHT

TAF TAF EBBL
Valide du 24 à 07h jusqu'au 24 à 16h UTC


240541Z 2407/2416 23010KT 9999 BKN015 BKN090
TEMPO 2407/2410 BKN010 BKN090
PROB30
TEMPO 2407/2412 -RA
BECMG 2410/2412 SCT025 BKN035
TEMPO 2409/2416 23010G20KT
Pas de NOTAMs connus pour ce terrain.



MET'MAP, la Météo Aéronautique d'un coup d'oeil ! - Copyright ORBIFLY Décembre 2007 - Disclaimer

ORBIFLY MET'MAP TEAM :

Programmation & Développement : Alexandra Zaïnal
Conception & Développement : Baudouin d'Aumeries
Co-Programmation & Développement : Marc-Olivier Méhu
Soutien technique & logistique : Manuel Goepfert

Contact : metmap@orbifly.com




SOURCES & CREDITS :

   NOAA